Time,TemperatureF,DewpointF,PressureIn,WindDirection,WindDirectionDegrees,WindSpeedMPH,WindSpeedGustMPH,Humidity,HourlyPrecipIn,Conditions,Clouds,dailyrainin,SoftwareType,DateUTC
2013-04-15 00:00:00,45.0,23.3,29.47,NNW,330,2.0,2.0,42,0.00,,,0.02,Wunderground v.1.15,2013-04-15 06:00:00,
2013-04-15 00:05:00,44.7,23.0,29.44,NW,326,2.0,2.0,42,0.00,,,0.00,Wunderground v.1.15,2013-04-15 06:05:00,
2013-04-15 00:15:00,44.9,22.6,29.44,West,273,1.0,3.0,41,0.00,,,0.00,Wunderground v.1.15,2013-04-15 06:15:00,
2013-04-15 00:20:00,44.3,22.6,29.46,West,268,1.0,3.0,42,0.00,,,0.00,Wunderground v.1.15,2013-04-15 06:20:00,
2013-04-15 00:25:00,43.5,21.9,29.45,WNW,288,2.0,4.0,42,0.00,,,0.00,Wunderground v.1.15,2013-04-15 06:25:00,
2013-04-15 00:30:00,43.6,21.4,29.46,West,269,4.0,5.0,41,0.00,,,0.00,Wunderground v.1.15,2013-04-15 06:30:00,
2013-04-15 00:35:00,43.8,21.0,29.45,West,275,4.0,5.0,40,0.00,,,0.00,Wunderground v.1.15,2013-04-15 06:35:00,
2013-04-15 00:40:00,43.8,21.0,29.45,WNW,294,4.0,4.0,40,0.00,,,0.00,Wunderground v.1.15,2013-04-15 06:40:00,
2013-04-15 00:45:00,43.6,21.4,29.45,WNW,292,2.0,4.0,41,0.00,,,0.00,Wunderground v.1.15,2013-04-15 06:45:00,
2013-04-15 00:50:00,43.4,20.7,29.44,WSW,239,3.0,3.0,40,0.00,,,0.00,Wunderground v.1.15,2013-04-15 06:50:00,
2013-04-15 00:55:00,43.5,20.2,29.44,WSW,239,3.0,4.0,39,0.00,,,0.00,Wunderground v.1.15,2013-04-15 06:55:00,
2013-04-15 01:00:00,43.8,19.2,29.44,WSW,252,3.0,3.0,37,0.00,,,0.00,Wunderground v.1.15,2013-04-15 07:00:00,
2013-04-15 01:05:00,44.3,19.0,29.43,West,261,2.0,3.0,36,0.00,,,0.00,Wunderground v.1.15,2013-04-15 07:05:00,
2013-04-15 01:45:00,47.5,19.1,29.40,SW,233,2.0,3.0,32,0.00,,,0.00,Wunderground v.1.15,2013-04-15 07:45:00,
2013-04-15 01:50:00,47.5,18.3,29.40,WNW,284,1.0,3.0,31,0.00,,,0.00,Wunderground v.1.15,2013-04-15 07:50:00,
2013-04-15 01:55:00,47.6,19.9,29.40,WNW,284,2.0,4.0,33,0.00,,,0.00,Wunderground v.1.15,2013-04-15 07:55:00,
2013-04-15 02:00:00,47.5,19.8,29.39,NW,315,3.0,3.0,33,0.00,,,0.00,Wunderground v.1.15,2013-04-15 08:00:00,
2013-04-15 02:05:00,47.4,21.1,29.38,NW,315,2.0,3.0,35,0.00,,,0.00,Wunderground v.1.15,2013-04-15 08:05:00,
2013-04-15 02:15:00,47.1,20.8,29.37,NW,315,1.0,1.0,35,0.00,,,0.00,Wunderground v.1.15,2013-04-15 08:15:00,
2013-04-15 02:20:00,46.9,20.6,29.37,NW,315,0.0,2.0,35,0.00,,,0.00,Wunderground v.1.15,2013-04-15 08:20:00,
2013-04-15 02:25:00,46.7,20.5,29.37,WNW,284,2.0,2.0,35,0.00,,,0.00,Wunderground v.1.15,2013-04-15 08:25:00,
2013-04-15 02:30:00,46.6,20.4,29.36,WNW,286,3.0,5.0,35,0.00,,,0.00,Wunderground v.1.15,2013-04-15 08:30:00,
2013-04-15 02:35:00,46.6,21.0,29.38,West,275,4.0,6.0,36,0.00,,,0.00,Wunderground v.1.15,2013-04-15 08:35:00,
2013-04-15 02:40:00,46.5,20.9,29.37,West,273,5.0,6.0,36,0.00,,,0.00,Wunderground v.1.15,2013-04-15 08:40:00,
2013-04-15 02:45:00,46.7,20.5,29.38,WSW,253,5.0,7.0,35,0.00,,,0.00,Wunderground v.1.15,2013-04-15 08:45:00,
2013-04-15 02:50:00,46.7,21.1,29.38,West,277,6.0,6.0,36,0.00,,,0.00,Wunderground v.1.15,2013-04-15 08:50:00,
2013-04-15 02:55:00,46.8,21.2,29.37,West,280,5.0,6.0,36,0.00,,,0.00,Wunderground v.1.15,2013-04-15 08:55:00,
2013-04-15 03:05:00,46.9,20.6,29.37,West,280,4.0,4.0,35,0.00,,,0.00,Wunderground v.1.15,2013-04-15 09:05:00,
2013-04-15 03:15:00,47.4,19.7,29.40,West,269,6.0,12.0,33,0.00,,,0.00,Wunderground v.1.15,2013-04-15 09:15:00,
2013-04-15 03:20:00,48.1,20.3,29.39,WNW,283,9.0,11.0,33,0.00,,,0.00,Wunderground v.1.15,2013-04-15 09:20:00,
2013-04-15 03:25:00,48.6,21.5,29.38,WSW,257,11.0,14.0,34,0.00,,,0.00,Wunderground v.1.15,2013-04-15 09:25:00,
2013-04-15 03:35:00,48.3,22.5,29.39,West,276,11.0,13.0,36,0.00,,,0.00,Wunderground v.1.15,2013-04-15 09:35:00,
2013-04-15 03:40:00,48.2,23.1,29.38,West,264,9.0,9.0,37,0.00,,,0.00,Wunderground v.1.15,2013-04-15 09:40:00,
2013-04-15 03:45:00,48.1,23.0,29.37,WNW,285,8.0,9.0,37,0.00,,,0.00,Wunderground v.1.15,2013-04-15 09:45:00,
2013-04-15 03:50:00,48.0,22.9,29.38,West,271,7.0,7.0,37,0.00,,,0.00,Wunderground v.1.15,2013-04-15 09:50:00,
2013-04-15 03:55:00,47.9,22.8,29.40,WSW,242,7.0,7.0,37,0.00,,,0.00,Wunderground v.1.15,2013-04-15 09:55:00,
2013-04-15 04:00:00,47.8,23.4,29.40,West,279,9.0,9.0,38,0.00,,,0.00,Wunderground v.1.15,2013-04-15 10:00:00,
2013-04-15 04:05:00,47.9,22.8,29.39,West,265,8.0,9.0,37,0.00,,,0.00,Wunderground v.1.15,2013-04-15 10:05:00,
2013-04-15 04:15:00,47.7,22.7,29.39,WNW,288,6.0,6.0,37,0.00,,,0.00,Wunderground v.1.15,2013-04-15 10:15:00,
2013-04-15 04:20:00,47.5,23.1,29.38,WNW,287,6.0,6.0,38,0.00,,,0.00,Wunderground v.1.15,2013-04-15 10:20:00,
2013-04-15 04:30:00,46.5,22.8,29.38,West,274,3.0,3.0,39,0.00,,,0.00,Wunderground v.1.15,2013-04-15 10:30:00,
2013-04-15 04:40:00,45.9,22.3,29.38,West,273,2.0,4.0,39,0.00,,,0.00,Wunderground v.1.15,2013-04-15 10:40:00,
2013-04-15 04:45:00,45.4,23.0,29.38,West,271,3.0,4.0,41,0.00,,,0.00,Wunderground v.1.15,2013-04-15 10:45:00,
2013-04-15 04:50:00,45.2,23.4,29.39,West,261,4.0,6.0,42,0.00,,,0.00,Wunderground v.1.15,2013-04-15 10:50:00,
2013-04-15 04:55:00,45.0,24.4,29.40,West,260,5.0,10.0,44,0.00,,,0.00,Wunderground v.1.15,2013-04-15 10:55:00,
2013-04-15 05:00:00,45.5,25.4,29.40,West,275,8.0,8.0,45,0.00,,,0.00,Wunderground v.1.15,2013-04-15 11:00:00,
2013-04-15 05:05:00,45.6,24.9,29.39,West,259,7.0,8.0,44,0.00,,,0.00,Wunderground v.1.15,2013-04-15 11:05:00,
2013-04-15 05:15:00,45.3,25.7,29.39,WSW,247,5.0,6.0,46,0.00,,,0.00,Wunderground v.1.15,2013-04-15 11:15:00,
2013-04-15 05:20:00,45.1,26.1,29.40,WSW,238,5.0,5.0,47,0.00,,,0.00,Wunderground v.1.15,2013-04-15 11:20:00,
2013-04-15 05:25:00,45.4,25.8,29.40,West,260,6.0,9.0,46,0.00,,,0.00,Wunderground v.1.15,2013-04-15 11:25:00,
2013-04-15 05:30:00,45.6,26.0,29.40,WSW,254,7.0,7.0,46,0.00,,,0.00,Wunderground v.1.15,2013-04-15 11:30:00,
2013-04-15 05:35:00,45.7,26.6,29.40,West,259,8.0,9.0,47,0.00,,,0.00,Wunderground v.1.15,2013-04-15 11:35:00,
2013-04-15 05:45:00,45.6,27.5,29.40,West,265,7.0,8.0,49,0.00,,,0.00,Wunderground v.1.15,2013-04-15 11:45:00,
2013-04-15 05:50:00,45.4,28.3,29.39,West,263,7.0,10.0,51,0.00,,,0.00,Wunderground v.1.15,2013-04-15 11:50:00,
2013-04-15 05:55:00,45.1,28.5,29.40,WSW,255,7.0,10.0,52,0.00,,,0.00,Wunderground v.1.15,2013-04-15 11:55:00,
2013-04-15 06:00:00,45.0,28.9,29.40,West,260,7.0,11.0,53,0.00,,,0.00,Wunderground v.1.15,2013-04-15 12:00:00,
2013-04-15 06:05:00,44.9,29.2,29.40,West,269,8.0,11.0,54,0.00,,,0.00,Wunderground v.1.15,2013-04-15 12:05:00,
2013-04-15 06:15:00,44.8,29.2,29.40,WSW,248,11.0,11.0,54,0.00,,,0.00,Wunderground v.1.15,2013-04-15 12:15:00,
2013-04-15 06:25:00,44.5,29.3,29.43,WNW,286,7.0,8.0,55,0.00,,,0.00,Wunderground v.1.15,2013-04-15 12:25:00,
2013-04-15 06:30:00,44.5,29.8,29.44,West,259,8.0,11.0,56,0.00,,,0.00,Wunderground v.1.15,2013-04-15 12:30:00,
2013-04-15 06:35:00,44.6,29.9,29.44,WSW,254,10.0,11.0,56,0.00,,,0.00,Wunderground v.1.15,2013-04-15 12:35:00,
2013-04-15 06:45:00,44.6,30.3,29.44,West,268,8.0,12.0,57,0.00,,,0.00,Wunderground v.1.15,2013-04-15 12:45:00,
2013-04-15 06:50:00,44.5,30.2,29.44,WNW,302,5.0,5.0,57,0.00,,,0.00,Wunderground v.1.15,2013-04-15 12:50:00,
2013-04-15 06:55:00,44.5,30.2,29.45,WSW,254,4.0,5.0,57,0.00,,,0.00,Wunderground v.1.15,2013-04-15 12:55:00,
2013-04-15 07:00:00,44.6,30.3,29.46,WSW,256,5.0,6.0,57,0.00,,,0.00,Wunderground v.1.15,2013-04-15 13:00:00,
2013-04-15 07:10:00,45.0,30.2,29.47,West,262,5.0,5.0,56,0.00,,,0.00,Wunderground v.1.15,2013-04-15 13:10:00,
2013-04-15 07:20:00,44.9,32.3,29.46,SW,229,5.0,5.0,61,0.00,,,0.00,Wunderground v.1.15,2013-04-15 13:20:00,
2013-04-15 07:25:00,44.6,32.4,29.46,SSW,206,4.0,5.0,62,0.00,,,0.00,Wunderground v.1.15,2013-04-15 13:25:00,
2013-04-15 07:30:00,44.6,32.0,29.47,SW,214,4.0,6.0,61,0.00,,,0.00,Wunderground v.1.15,2013-04-15 13:30:00,
2013-04-15 07:45:00,45.1,31.2,29.51,WSW,248,6.0,9.0,58,0.00,,,0.00,Wunderground v.1.15,2013-04-15 13:45:00,
2013-04-15 07:55:00,45.0,32.8,29.51,SW,225,5.0,7.0,62,0.00,,,0.00,Wunderground v.1.15,2013-04-15 13:55:00,
2013-04-15 08:00:00,44.8,32.6,29.50,SSW,206,5.0,6.0,62,0.00,,,0.00,Wunderground v.1.15,2013-04-15 14:00:00,
2013-04-15 08:05:00,44.7,34.0,29.51,SSW,194,7.0,12.0,66,0.00,,,0.00,Wunderground v.1.15,2013-04-15 14:05:00,
2013-04-15 08:15:00,43.8,34.6,29.51,South,173,8.0,11.0,70,0.00,,,0.00,Wunderground v.1.15,2013-04-15 14:15:00,
2013-04-15 08:20:00,43.6,34.8,29.51,South,190,7.0,11.0,71,0.00,,,0.00,Wunderground v.1.15,2013-04-15 14:20:00,
2013-04-15 08:30:00,43.3,35.2,29.52,South,179,7.0,7.0,73,0.00,,,0.00,Wunderground v.1.15,2013-04-15 14:30:00,
2013-04-15 08:35:00,43.3,35.2,29.52,SE,141,5.0,7.0,73,0.00,,,0.00,Wunderground v.1.15,2013-04-15 14:35:00,
2013-04-15 08:40:00,43.3,35.6,29.52,SE,132,4.0,4.0,74,0.00,,,0.00,Wunderground v.1.15,2013-04-15 14:40:00,
2013-04-15 08:50:00,43.5,35.1,29.52,SE,146,4.0,4.0,72,0.00,,,0.00,Wunderground v.1.15,2013-04-15 14:50:00,
2013-04-15 09:00:00,43.8,35.7,29.52,East,91,3.0,4.0,73,0.00,,,0.00,Wunderground v.1.15,2013-04-15 15:00:00,
2013-04-15 09:05:00,43.6,35.5,29.54,ESE,107,3.0,5.0,73,0.00,,,0.00,Wunderground v.1.15,2013-04-15 15:05:00,
2013-04-15 09:15:00,43.3,35.6,29.54,East,80,5.0,6.0,74,0.00,,,0.00,Wunderground v.1.15,2013-04-15 15:15:00,
2013-04-15 09:20:00,42.8,35.4,29.55,East,101,6.0,6.0,75,0.00,,,0.00,Wunderground v.1.15,2013-04-15 15:20:00,
2013-04-15 09:30:00,42.2,35.8,29.56,ESE,107,6.0,10.0,78,0.00,,,0.01,Wunderground v.1.15,2013-04-15 15:30:00,
2013-04-15 09:40:00,41.7,35.7,29.57,ESE,105,8.0,8.0,79,0.00,,,0.01,Wunderground v.1.15,2013-04-15 15:40:00,
2013-04-15 09:45:00,41.6,35.9,29.58,SE,130,6.0,8.0,80,0.04,,,0.01,Wunderground v.1.15,2013-04-15 15:45:00,
2013-04-15 09:50:00,41.6,36.2,29.58,SE,132,5.0,5.0,81,0.04,,,0.02,Wunderground v.1.15,2013-04-15 15:50:00,
2013-04-15 09:55:00,41.7,36.3,29.59,SE,143,5.0,5.0,81,0.04,,,0.02,Wunderground v.1.15,2013-04-15 15:55:00,
2013-04-15 10:00:00,42.0,36.6,29.59,SSE,153,6.0,6.0,81,0.04,,,0.02,Wunderground v.1.15,2013-04-15 16:00:00,
2013-04-15 10:10:00,42.4,37.0,29.59,ESE,113,3.0,4.0,81,0.00,,,0.03,Wunderground v.1.15,2013-04-15 16:10:00,
2013-04-15 10:15:00,42.4,37.0,29.59,East,98,3.0,4.0,81,0.00,,,0.03,Wunderground v.1.15,2013-04-15 16:15:00,
2013-04-15 10:20:00,42.3,36.9,29.59,East,95,4.0,4.0,81,0.00,,,0.03,Wunderground v.1.15,2013-04-15 16:20:00,
2013-04-15 10:30:00,42.3,37.2,29.58,East,92,5.0,6.0,82,0.00,,,0.03,Wunderground v.1.15,2013-04-15 16:30:00,
2013-04-15 10:35:00,42.4,37.3,29.59,East,83,5.0,6.0,82,0.00,,,0.03,Wunderground v.1.15,2013-04-15 16:35:00,
2013-04-15 10:45:00,42.6,37.5,29.59,ESE,105,4.0,6.0,82,0.00,,,0.04,Wunderground v.1.15,2013-04-15 16:45:00,
2013-04-15 10:50:00,42.6,37.5,29.60,ESE,105,4.0,4.0,82,0.00,,,0.04,Wunderground v.1.15,2013-04-15 16:50:00,
2013-04-15 10:55:00,42.6,37.5,29.60,ENE,71,3.0,4.0,82,0.00,,,0.04,Wunderground v.1.15,2013-04-15 16:55:00,
2013-04-15 11:00:00,42.6,37.5,29.60,ENE,57,4.0,6.0,82,0.00,,,0.04,Wunderground v.1.15,2013-04-15 17:00:00,
2013-04-15 11:10:00,42.8,37.7,29.62,ESE,119,4.0,4.0,82,0.00,,,0.04,Wunderground v.1.15,2013-04-15 17:10:00,
2013-04-15 11:20:00,43.4,37.3,29.62,SSE,148,4.0,4.0,79,0.00,,,0.04,Wunderground v.1.15,2013-04-15 17:20:00,
2013-04-15 11:25:00,43.7,37.3,29.62,SSE,162,3.0,4.0,78,0.00,,,0.04,Wunderground v.1.15,2013-04-15 17:25:00,
2013-04-15 11:30:00,43.8,37.4,29.63,SSW,209,3.0,3.0,78,0.00,,,0.04,Wunderground v.1.15,2013-04-15 17:30:00,
2013-04-15 11:35:00,43.8,37.4,29.64,SSW,209,3.0,3.0,78,0.00,,,0.04,Wunderground v.1.15,2013-04-15 17:35:00,
2013-04-15 11:40:00,43.8,37.4,29.63,SSW,209,1.0,1.0,78,0.00,,,0.04,Wunderground v.1.15,2013-04-15 17:40:00,
2013-04-15 11:45:00,43.8,37.4,29.64,NW,325,1.0,3.0,78,0.00,,,0.04,Wunderground v.1.15,2013-04-15 17:45:00,
2013-04-15 11:55:00,43.8,37.1,29.63,NW,322,1.0,2.0,77,0.00,,,0.04,Wunderground v.1.15,2013-04-15 17:55:00,
2013-04-15 12:00:00,43.8,36.4,29.65,WSW,255,1.0,1.0,75,0.00,,,0.04,Wunderground v.1.15,2013-04-15 18:00:00,
2013-04-15 12:05:00,43.9,36.8,29.64,WSW,254,1.0,1.0,76,0.00,,,0.04,Wunderground v.1.15,2013-04-15 18:05:00,
2013-04-15 12:15:00,44.5,37.4,29.62,SSW,192,1.0,5.0,76,0.00,,,0.04,Wunderground v.1.15,2013-04-15 18:15:00,
2013-04-15 12:25:00,45.3,37.8,29.61,SE,132,2.0,2.0,75,0.00,,,0.04,Wunderground v.1.15,2013-04-15 18:25:00,
2013-04-15 12:30:00,45.3,37.5,29.62,South,173,3.0,4.0,74,0.00,,,0.04,Wunderground v.1.15,2013-04-15 18:30:00,
2013-04-15 12:35:00,44.9,36.8,29.63,SSE,165,4.0,7.0,73,0.00,,,0.04,Wunderground v.1.15,2013-04-15 18:35:00,
2013-04-15 12:40:00,44.5,37.7,29.63,SSE,163,6.0,6.0,77,0.00,,,0.04,Wunderground v.1.15,2013-04-15 18:40:00,
2013-04-15 12:45:00,44.4,36.3,29.64,South,182,6.0,6.0,73,0.00,,,0.04,Wunderground v.1.15,2013-04-15 18:45:00,
2013-04-15 12:55:00,44.5,36.0,29.63,SSW,200,5.0,5.0,72,0.00,,,0.04,Wunderground v.1.15,2013-04-15 18:55:00,
2013-04-15 13:00:00,44.6,36.1,29.64,South,176,4.0,4.0,72,0.00,,,0.04,Wunderground v.1.15,2013-04-15 19:00:00,
2013-04-15 13:05:00,44.7,36.2,29.62,SSE,148,4.0,4.0,72,0.00,,,0.05,Wunderground v.1.15,2013-04-15 19:05:00,
2013-04-15 13:15:00,44.2,36.4,29.61,East,99,3.0,4.0,74,0.06,,,0.06,Wunderground v.1.15,2013-04-15 19:15:00,
2013-04-15 13:20:00,43.9,35.8,29.61,East,100,2.0,2.0,73,0.09,,,0.07,Wunderground v.1.15,2013-04-15 19:20:00,
2013-04-15 13:30:00,42.8,35.1,29.63,SSW,198,4.0,4.0,74,0.05,,,0.07,Wunderground v.1.15,2013-04-15 19:30:00,
2013-04-15 13:40:00,42.4,35.0,29.63,SSW,210,3.0,3.0,75,0.04,,,0.08,Wunderground v.1.15,2013-04-15 19:40:00,
2013-04-15 13:50:00,42.5,35.8,29.64,SSW,209,1.0,3.0,77,0.07,,,0.09,Wunderground v.1.15,2013-04-15 19:50:00,
2013-04-15 14:00:00,42.5,35.5,29.64,ESE,111,1.0,1.0,76,0.09,,,0.11,Wunderground v.1.15,2013-04-15 20:00:00,
2013-04-15 14:05:00,42.5,35.5,29.65,SSE,155,1.0,3.0,76,0.08,,,0.11,Wunderground v.1.15,2013-04-15 20:05:00,
2013-04-15 14:10:00,42.5,35.8,29.64,SSW,202,2.0,10.0,77,0.06,,,0.12,Wunderground v.1.15,2013-04-15 20:10:00,
2013-04-15 14:15:00,42.0,35.0,29.65,SW,222,5.0,10.0,76,0.06,,,0.12,Wunderground v.1.15,2013-04-15 20:15:00,
2013-04-15 14:20:00,41.8,35.1,29.64,SW,223,6.0,6.0,77,0.08,,,0.13,Wunderground v.1.15,2013-04-15 20:20:00,
2013-04-15 14:25:00,41.7,35.0,29.65,SW,223,3.0,6.0,77,0.07,,,0.14,Wunderground v.1.15,2013-04-15 20:25:00,
2013-04-15 14:30:00,41.7,35.0,29.65,SW,223,2.0,2.0,77,0.07,,,0.14,Wunderground v.1.15,2013-04-15 20:30:00,
2013-04-15 14:40:00,41.9,35.5,29.64,SW,222,0.0,0.0,78,0.04,,,0.14,Wunderground v.1.15,2013-04-15 20:40:00,
2013-04-15 14:45:00,42.2,36.2,29.63,SW,223,0.0,0.0,79,0.00,,,0.15,Wunderground v.1.15,2013-04-15 20:45:00,
2013-04-15 14:50:00,42.5,36.4,29.64,SW,223,0.0,0.0,79,0.00,,,0.15,Wunderground v.1.15,2013-04-15 20:50:00,
2013-04-15 14:55:00,42.6,36.5,29.64,SW,223,0.0,0.0,79,0.00,,,0.15,Wunderground v.1.15,2013-04-15 20:55:00,
2013-04-15 15:00:00,42.6,36.5,29.64,NNE,14,0.0,2.0,79,0.00,,,0.15,Wunderground v.1.15,2013-04-15 21:00:00,
2013-04-15 15:05:00,42.6,36.5,29.63,NNE,15,1.0,2.0,79,0.00,,,0.15,Wunderground v.1.15,2013-04-15 21:05:00,
2013-04-15 15:15:00,43.0,37.3,29.62,NNE,22,2.0,4.0,80,0.00,,,0.16,Wunderground v.1.15,2013-04-15 21:15:00,
2013-04-15 15:20:00,43.0,36.9,29.63,NE,55,3.0,3.0,79,0.00,,,0.16,Wunderground v.1.15,2013-04-15 21:20:00,
2013-04-15 15:25:00,43.1,37.3,29.63,NNE,28,2.0,3.0,80,0.00,,,0.16,Wunderground v.1.15,2013-04-15 21:25:00,
2013-04-15 15:30:00,43.0,37.3,29.63,NNE,25,1.0,3.0,80,0.00,,,0.16,Wunderground v.1.15,2013-04-15 21:30:00,
2013-04-15 15:40:00,42.6,36.5,29.62,NE,56,3.0,3.0,79,0.00,,,0.17,Wunderground v.1.15,2013-04-15 21:40:00,
2013-04-15 15:45:00,42.6,36.5,29.63,NE,56,3.0,3.0,79,0.00,,,0.17,Wunderground v.1.15,2013-04-15 21:45:00,
2013-04-15 15:50:00,42.5,36.4,29.63,NE,42,2.0,3.0,79,0.00,,,0.17,Wunderground v.1.15,2013-04-15 21:50:00,
2013-04-15 15:55:00,42.6,36.5,29.64,NE,42,2.0,3.0,79,0.00,,,0.17,Wunderground v.1.15,2013-04-15 21:55:00,
2013-04-15 16:00:00,42.6,36.5,29.63,NE,42,2.0,2.0,79,0.00,,,0.17,Wunderground v.1.15,2013-04-15 22:00:00,
2013-04-15 16:05:00,42.5,36.4,29.64,NE,42,2.0,2.0,79,0.00,,,0.18,Wunderground v.1.15,2013-04-15 22:05:00,
2013-04-15 16:15:00,42.5,36.8,29.65,NNW,328,1.0,2.0,80,0.00,,,0.18,Wunderground v.1.15,2013-04-15 22:15:00,
2013-04-15 16:20:00,42.4,37.0,29.64,NNE,15,2.0,2.0,81,0.00,,,0.18,Wunderground v.1.15,2013-04-15 22:20:00,
2013-04-15 16:25:00,42.2,36.8,29.64,NNW,340,2.0,3.0,81,0.00,,,0.19,Wunderground v.1.15,2013-04-15 22:25:00,
2013-04-15 16:35:00,41.7,36.6,29.64,North,9,2.0,3.0,82,0.00,,,0.19,Wunderground v.1.15,2013-04-15 22:35:00,
2013-04-15 16:45:00,41.4,36.3,29.65,North,5,1.0,1.0,82,0.04,,,0.20,Wunderground v.1.15,2013-04-15 22:45:00,
2013-04-15 16:50:00,41.4,36.6,29.65,North,360,1.0,1.0,83,0.06,,,0.21,Wunderground v.1.15,2013-04-15 22:50:00,
2013-04-15 16:55:00,41.4,36.6,29.64,East,83,2.0,2.0,83,0.09,,,0.22,Wunderground v.1.15,2013-04-15 22:55:00,
2013-04-15 17:00:00,41.5,36.7,29.65,East,83,2.0,2.0,83,0.13,,,0.23,Wunderground v.1.15,2013-04-15 23:00:00,
2013-04-15 17:05:00,41.5,36.7,29.66,SSW,200,2.0,6.0,83,0.10,,,0.24,Wunderground v.1.15,2013-04-15 23:05:00,
2013-04-15 17:15:00,41.0,36.5,29.66,South,173,4.0,5.0,84,0.22,,,0.27,Wunderground v.1.15,2013-04-15 23:15:00,
2013-04-15 17:20:00,40.6,36.1,29.66,SW,220,4.0,5.0,84,0.12,,,0.27,Wunderground v.1.15,2013-04-15 23:20:00,
2013-04-15 17:25:00,40.3,35.8,29.66,SW,220,4.0,5.0,84,0.09,,,0.28,Wunderground v.1.15,2013-04-15 23:25:00,
2013-04-15 17:30:00,40.3,35.8,29.66,SW,219,1.0,1.0,84,0.07,,,0.29,Wunderground v.1.15,2013-04-15 23:30:00,
2013-04-15 17:40:00,40.4,36.2,29.67,SW,220,2.0,2.0,85,0.06,,,0.29,Wunderground v.1.15,2013-04-15 23:40:00,
2013-04-15 17:45:00,40.3,36.1,29.67,SW,219,2.0,2.0,85,0.04,,,0.29,Wunderground v.1.15,2013-04-15 23:45:00,
2013-04-15 17:50:00,40.4,36.2,29.66,ESE,109,1.0,3.0,85,0.00,,,0.29,Wunderground v.1.15,2013-04-15 23:50:00,
2013-04-15 17:55:00,40.6,36.4,29.65,ENE,73,3.0,4.0,85,0.00,,,0.30,Wunderground v.1.15,2013-04-15 23:55:00,
2013-04-15 18:00:00,40.6,36.4,29.65,ENE,77,3.0,5.0,85,0.11,,,0.31,Wunderground v.1.15,2013-04-16 00:00:00,
2013-04-15 18:05:00,40.5,36.3,29.65,East,99,4.0,5.0,85,0.07,,,0.31,Wunderground v.1.15,2013-04-16 00:05:00,
2013-04-15 18:15:00,40.5,36.3,29.66,ENE,72,4.0,5.0,85,0.00,,,0.31,Wunderground v.1.15,2013-04-16 00:15:00,
2013-04-15 18:20:00,40.5,36.3,29.66,ENE,65,4.0,6.0,85,0.00,,,0.31,Wunderground v.1.15,2013-04-16 00:20:00,
2013-04-15 18:25:00,40.5,36.3,29.66,East,80,5.0,6.0,85,0.00,,,0.32,Wunderground v.1.15,2013-04-16 00:25:00,
2013-04-15 18:30:00,40.6,36.4,29.66,ESE,109,5.0,5.0,85,0.09,,,0.33,Wunderground v.1.15,2013-04-16 00:30:00,
2013-04-15 18:35:00,40.5,36.3,29.67,East,84,4.0,5.0,85,0.10,,,0.34,Wunderground v.1.15,2013-04-16 00:35:00,
2013-04-15 18:40:00,40.4,36.2,29.67,East,82,4.0,5.0,85,0.12,,,0.35,Wunderground v.1.15,2013-04-16 00:40:00,
2013-04-15 18:50:00,40.2,36.1,29.67,ENE,74,4.0,6.0,85,0.10,,,0.36,Wunderground v.1.15,2013-04-16 00:50:00,
2013-04-15 18:55:00,40.2,36.1,29.68,ENE,78,4.0,6.0,85,0.11,,,0.37,Wunderground v.1.15,2013-04-16 00:55:00,
2013-04-15 19:00:00,40.2,36.1,29.67,ENE,57,4.0,5.0,85,0.07,,,0.37,Wunderground v.1.15,2013-04-16 01:00:00,
2013-04-15 19:05:00,40.2,36.3,29.67,ENE,62,5.0,5.0,86,0.05,,,0.38,Wunderground v.1.15,2013-04-16 01:05:00,
2013-04-15 19:15:00,40.2,36.3,29.67,North,10,4.0,6.0,86,0.08,,,0.39,Wunderground v.1.15,2013-04-16 01:15:00,
2013-04-15 19:20:00,40.3,36.4,29.66,NNE,32,3.0,3.0,86,0.07,,,0.39,Wunderground v.1.15,2013-04-16 01:20:00,
2013-04-15 19:25:00,40.4,36.5,29.66,NE,40,4.0,5.0,86,0.04,,,0.39,Wunderground v.1.15,2013-04-16 01:25:00,
2013-04-15 19:30:00,40.4,36.5,29.66,NE,34,4.0,4.0,86,0.00,,,0.39,Wunderground v.1.15,2013-04-16 01:30:00,
2013-04-15 19:35:00,40.4,36.5,29.67,NE,53,3.0,4.0,86,0.00,,,0.39,Wunderground v.1.15,2013-04-16 01:35:00,
2013-04-15 19:40:00,40.5,36.6,29.65,NE,40,3.0,5.0,86,0.00,,,0.39,Wunderground v.1.15,2013-04-16 01:40:00,
2013-04-15 19:45:00,40.4,36.5,29.66,NE,56,4.0,5.0,86,0.00,,,0.39,Wunderground v.1.15,2013-04-16 01:45:00,
2013-04-15 19:55:00,40.2,36.3,29.66,NE,53,4.0,5.0,86,0.00,,,0.39,Wunderground v.1.15,2013-04-16 01:55:00,
2013-04-15 20:00:00,40.1,36.0,29.66,NE,52,4.0,4.0,85,0.00,,,0.39,Wunderground v.1.15,2013-04-16 02:00:00,
2013-04-15 20:05:00,40.1,36.0,29.66,NE,52,4.0,4.0,85,0.00,,,0.39,Wunderground v.1.15,2013-04-16 02:05:00,
2013-04-15 20:15:00,40.2,35.8,29.66,ENE,61,3.0,4.0,84,0.00,,,0.39,Wunderground v.1.15,2013-04-16 02:15:00,
2013-04-15 20:20:00,40.2,35.8,29.66,ENE,61,1.0,1.0,84,0.00,,,0.39,Wunderground v.1.15,2013-04-16 02:20:00,
2013-04-15 20:25:00,40.2,35.8,29.65,ENE,61,0.0,1.0,84,0.00,,,0.39,Wunderground v.1.15,2013-04-16 02:25:00,
2013-04-15 20:35:00,40.2,35.8,29.65,ENE,61,0.0,0.0,84,0.00,,,0.39,Wunderground v.1.15,2013-04-16 02:35:00,
2013-04-15 20:40:00,40.2,35.8,29.65,East,84,0.0,2.0,84,0.00,,,0.39,Wunderground v.1.15,2013-04-16 02:40:00,
2013-04-15 20:45:00,40.3,36.1,29.64,East,84,1.0,2.0,85,0.00,,,0.39,Wunderground v.1.15,2013-04-16 02:45:00,
2013-04-15 20:55:00,40.5,36.3,29.64,East,85,0.0,0.0,85,0.00,,,0.39,Wunderground v.1.15,2013-04-16 02:55:00,
2013-04-15 21:00:00,40.6,36.4,29.63,East,85,0.0,1.0,85,0.00,,,0.39,Wunderground v.1.15,2013-04-16 03:00:00,
2013-04-15 21:05:00,40.7,36.5,29.64,East,85,1.0,1.0,85,0.00,,,0.39,Wunderground v.1.15,2013-04-16 03:05:00,
2013-04-15 21:15:00,40.9,36.7,29.63,ESE,114,2.0,2.0,85,0.00,,,0.39,Wunderground v.1.15,2013-04-16 03:15:00,
2013-04-15 21:20:00,40.9,36.7,29.63,ESE,114,3.0,3.0,85,0.00,,,0.39,Wunderground v.1.15,2013-04-16 03:20:00,
2013-04-15 21:25:00,40.9,36.7,29.63,ESE,110,4.0,4.0,85,0.00,,,0.39,Wunderground v.1.15,2013-04-16 03:25:00,
2013-04-15 21:30:00,40.9,36.7,29.63,SE,129,5.0,5.0,85,0.00,,,0.39,Wunderground v.1.15,2013-04-16 03:30:00,
2013-04-15 21:35:00,40.7,36.5,29.63,ESE,112,4.0,6.0,85,0.00,,,0.39,Wunderground v.1.15,2013-04-16 03:35:00,
2013-04-15 21:40:00,40.7,36.5,29.63,ESE,114,4.0,5.0,85,0.00,,,0.39,Wunderground v.1.15,2013-04-16 03:40:00,
2013-04-15 21:45:00,40.6,36.4,29.63,ESE,103,3.0,5.0,85,0.00,,,0.39,Wunderground v.1.15,2013-04-16 03:45:00,
2013-04-15 21:50:00,40.4,35.9,29.63,East,79,3.0,3.0,84,0.00,,,0.39,Wunderground v.1.15,2013-04-16 03:50:00,
2013-04-15 22:00:00,40.1,35.7,29.62,ESE,114,4.0,4.0,84,0.00,,,0.39,Wunderground v.1.15,2013-04-16 04:00:00,
2013-04-15 22:05:00,40.0,35.6,29.62,ESE,110,4.0,4.0,84,0.00,,,0.39,Wunderground v.1.15,2013-04-16 04:05:00,
2013-04-15 22:15:00,39.7,35.3,29.62,ESE,113,4.0,5.0,84,0.00,,,0.39,Wunderground v.1.15,2013-04-16 04:15:00,
2013-04-15 22:20:00,39.7,35.3,29.62,ESE,114,4.0,4.0,84,0.00,,,0.39,Wunderground v.1.15,2013-04-16 04:20:00,
2013-04-15 22:30:00,39.7,35.0,29.61,East,98,4.0,4.0,83,0.00,,,0.39,Wunderground v.1.15,2013-04-16 04:30:00,
2013-04-15 22:35:00,39.6,34.9,29.61,ESE,118,4.0,4.0,83,0.00,,,0.39,Wunderground v.1.15,2013-04-16 04:35:00,
2013-04-15 22:40:00,39.5,34.8,29.61,East,92,3.0,3.0,83,0.00,,,0.39,Wunderground v.1.15,2013-04-16 04:40:00,
2013-04-15 22:45:00,39.5,34.8,29.61,East,101,3.0,3.0,83,0.00,,,0.39,Wunderground v.1.15,2013-04-16 04:45:00,
2013-04-15 22:50:00,39.4,34.7,29.61,SE,132,4.0,7.0,83,0.00,,,0.39,Wunderground v.1.15,2013-04-16 04:50:00,
2013-04-15 22:55:00,39.4,34.7,29.61,ESE,118,4.0,7.0,83,0.00,,,0.39,Wunderground v.1.15,2013-04-16 04:55:00,
2013-04-15 23:00:00,39.4,34.7,29.61,East,101,4.0,4.0,83,0.00,,,0.39,Wunderground v.1.15,2013-04-16 05:00:00,
2013-04-15 23:05:00,39.4,34.7,29.60,ESE,107,4.0,5.0,83,0.00,,,0.39,Wunderground v.1.15,2013-04-16 05:05:00,
2013-04-15 23:15:00,39.3,34.3,29.59,ESE,108,4.0,4.0,82,0.00,,,0.39,Wunderground v.1.15,2013-04-16 05:15:00,
2013-04-15 23:20:00,39.1,34.1,29.59,ESE,114,3.0,6.0,82,0.00,,,0.39,Wunderground v.1.15,2013-04-16 05:20:00,
2013-04-15 23:25:00,39.2,34.2,29.59,ESE,110,4.0,6.0,82,0.00,,,0.39,Wunderground v.1.15,2013-04-16 05:25:00,
2013-04-15 23:35:00,39.5,34.5,29.58,ESE,119,4.0,7.0,82,0.00,,,0.39,Wunderground v.1.15,2013-04-16 05:35:00,
2013-04-15 23:40:00,39.6,34.2,29.58,SE,124,4.0,4.0,81,0.00,,,0.39,Wunderground v.1.15,2013-04-16 05:40:00,
2013-04-15 23:45:00,39.6,34.2,29.58,SE,144,4.0,5.0,81,0.00,,,0.39,Wunderground v.1.15,2013-04-16 05:45:00,
2013-04-15 23:55:00,39.7,34.3,29.57,SE,125,3.0,4.0,81,0.00,,,0.39,Wunderground v.1.15,2013-04-16 05:55:00,